Airfield :
LOGIN :

Register | Disclaimer

   EN    FR    IT 

 










Legend :    VFR   Marginal VFR   IFR   Intensive IFR   Very Intensive IFR
Visi :
Ceiling :
>= 8 km
>= 3000ft
5 to 8 km
1000 to 3000 ft
1500m to 5 km
500 to 1000 ft
800 to 1500m
200 to 500 ft
< 800m
< 200 ft
Symbols :   Thunderstorms  Fog  Heavy snow  Heavy precipitations  Wind > 20 kt
SIGMETs :     Misc.  Thunderstorms  Icing  Turbulence  Mountain Waves  Volcanic Ashes






- Airport Elevation : 325 ft
- IATA code : BES


LFRB - Brest

CURRENT METAR :
  • 282300Z AUTO 24011KT CAVOK 12/10 Q1016 NOSIG

EXPIRED METARs :
  • 282230Z AUTO 25011KT 9999 FEW012 BKN062 BKN080 12/10 Q1016 NOSIG
  • 282200Z AUTO 24016KT 9999 SCT013 BKN027 BKN042 12/11 Q1015 NOSIG
  • 282130Z AUTO 23011KT 9999 -RA FEW019/// SCT032/// BKN052/// ///TCU 12/10 Q1015 BECMG SCT025 SCT050
  • 282100Z AUTO 25010KT 220V280 9999 -RA FEW025 BKN058 BKN068 12/10 Q1015 NOSIG
  • 282030Z AUTO 24012KT 9999 -RA FEW021/// SCT054/// BKN064/// ///TCU 12/10 Q1014 BECMG SCT025 SCT050

TAF TAF LFRB
Valid from the 28 at 18:00 until the 30 at 00:00 UTC


281700Z 2818/2924 24015G30KT 9999 SCT025 SCT050
TEMPO 2818/2821 5000 SHRA
BECMG 2818/2821 25015KT
BECMG 2908/2910 23015G25KT
TEMPO 2907/2924 BKN008
TEMPO 2912/2924 20018G30KT
ATIS : +33 2 98 32 02 71



MET'MAP, your aeronautical weather chart ! - Copyright ORBIFLY December 2007 - Disclaimer

ORBIFLY MET'MAP TEAM :

Programming & Development : Alexandra Zaïnal
Concept & original design : Baudouin d'Aumeries
Assistance for programming : Marc-Olivier Méhu
Technical & hardware support : Manuel Goepfert

Contact : metmap@orbifly.com




SOURCES & CREDITS :

   NOAA